createdAt,value
2023-02-02T00:00:11.838Z,101514.59
2023-02-02T00:00:33.469Z,101518.06
2023-02-02T00:00:55.294Z,101513.63
2023-02-02T00:01:16.902Z,101510.97
2023-02-02T00:01:39.537Z,101519.81
2023-02-02T00:02:01.983Z,101514.50
2023-02-02T00:02:23.668Z,101515.38
2023-02-02T00:02:45.286Z,101518.88
2023-02-02T00:03:07.014Z,101517.97
2023-02-02T00:03:30.174Z,101516.19
2023-02-02T00:03:52.380Z,101513.53
2023-02-02T00:04:17.227Z,101512.63
2023-02-02T00:04:39.756Z,101508.22
2023-02-02T00:05:01.388Z,101515.28
2023-02-02T00:05:23.206Z,101523.19
2023-02-02T00:05:46.073Z,101516.97
2023-02-02T00:06:07.899Z,101510.75
2023-02-02T00:06:32.121Z,101512.56
2023-02-02T00:06:57.002Z,101513.41
2023-02-02T00:07:18.592Z,101497.56
2023-02-02T00:07:40.265Z,101509.13
2023-02-02T00:08:02.869Z,101506.56
2023-02-02T00:08:24.652Z,101520.63
2023-02-02T00:08:47.212Z,101513.53
2023-02-02T00:09:11.315Z,101505.56
2023-02-02T00:09:34.693Z,101513.50
2023-02-02T00:09:56.304Z,101514.34
2023-02-02T00:10:17.889Z,101516.97
2023-02-02T00:10:39.839Z,101516.16
2023-02-02T00:11:01.573Z,101515.31
2023-02-02T00:11:25.903Z,101513.63
2023-02-02T00:11:49.025Z,101517.16
2023-02-02T00:12:10.627Z,101510.09
2023-02-02T00:12:32.554Z,101505.63
2023-02-02T00:12:57.814Z,101517.97
2023-02-02T00:13:20.355Z,101511.84
2023-02-02T00:13:42.182Z,101512.75
2023-02-02T00:14:04.055Z,101514.44
2023-02-02T00:14:26.579Z,101516.31
2023-02-02T00:14:49.166Z,101511.00
2023-02-02T00:15:11.276Z,101516.28
2023-02-02T00:15:33.014Z,101512.84
2023-02-02T00:15:54.750Z,101518.28
2023-02-02T00:16:36.484Z,101513.72
2023-02-02T00:16:59.406Z,101511.97
2023-02-02T00:17:21.007Z,101505.69
2023-02-02T00:17:42.590Z,101519.81
2023-02-02T00:18:04.726Z,101514.50
2023-02-02T00:18:26.332Z,101513.56
2023-02-02T00:18:49.470Z,101510.00
2023-02-02T00:19:13.589Z,101514.50
2023-02-02T00:19:35.209Z,101505.69
2023-02-02T00:19:57.745Z,101515.38
2023-02-02T00:20:19.372Z,101515.31
2023-02-02T00:20:41.004Z,101508.25
2023-02-02T00:21:02.720Z,101513.63
2023-02-02T00:21:24.814Z,101510.97
2023-02-02T00:21:47.429Z,101502.19
2023-02-02T00:22:09.116Z,101516.38
2023-02-02T00:22:30.719Z,101514.69
2023-02-02T00:22:52.390Z,101515.50
2023-02-02T00:23:14.062Z,101519.41
2023-02-02T00:23:36.645Z,101517.56
2023-02-02T00:23:58.344Z,101521.88
2023-02-02T00:24:20.345Z,101513.91
2023-02-02T00:24:41.997Z,101517.47
2023-02-02T00:25:05.247Z,101520.03
2023-02-02T00:25:27.437Z,101516.47
2023-02-02T00:25:51.102Z,101512.88
2023-02-02T00:26:12.806Z,101512.81
2023-02-02T00:26:37.570Z,101511.88
2023-02-02T00:27:00.410Z,101517.16
2023-02-02T00:27:22.063Z,101512.75
2023-02-02T00:27:44.467Z,101510.97
2023-02-02T00:28:07.027Z,101503.00
2023-02-02T00:28:28.848Z,101504.84
2023-02-02T00:28:50.500Z,101515.47
2023-02-02T00:29:16.320Z,101504.78
2023-02-02T00:29:39.780Z,101500.31
2023-02-02T00:30:01.467Z,101510.09
2023-02-02T00:30:23.684Z,101504.75
2023-02-02T00:30:45.651Z,101500.38
2023-02-02T00:31:07.516Z,101506.53
2023-02-02T00:31:30.241Z,101504.84
2023-02-02T00:31:52.347Z,101517.16
2023-02-02T00:32:14.044Z,101509.28
2023-02-02T00:32:35.848Z,101511.09
2023-02-02T00:32:58.473Z,101513.72
2023-02-02T00:33:20.121Z,101511.00
2023-02-02T00:33:44.916Z,101506.53
2023-02-02T00:34:06.609Z,101500.28
2023-02-02T00:34:29.200Z,101512.72
2023-02-02T00:34:50.840Z,101514.50
2023-02-02T00:35:12.472Z,101503.00
2023-02-02T00:35:34.750Z,101514.44
2023-02-02T00:35:56.805Z,101505.63
2023-02-02T00:36:20.656Z,101504.13
2023-02-02T00:36:44.509Z,101504.97
2023-02-02T00:37:09.081Z,101507.56
2023-02-02T00:37:31.283Z,101500.53
2023-02-02T00:37:53.893Z,101496.00
2023-02-02T00:38:16.974Z,101509.22
2023-02-02T00:38:38.624Z,101495.22
2023-02-02T00:39:00.595Z,101507.53
2023-02-02T00:39:26.378Z,101505.84
2023-02-02T00:39:48.754Z,101506.78
2023-02-02T00:40:11.510Z,101507.72
2023-02-02T00:40:33.817Z,101504.00
2023-02-02T00:40:56.440Z,101505.78
2023-02-02T00:41:21.911Z,101511.88
2023-02-02T00:41:48.552Z,101497.88
2023-02-02T00:42:12.330Z,101505.94
2023-02-02T00:42:35.191Z,101505.94
2023-02-02T00:42:58.592Z,101506.78
2023-02-02T00:43:20.250Z,101504.06
2023-02-02T00:43:42.921Z,101504.06
2023-02-02T00:44:23.381Z,101510.19
2023-02-02T00:45:08.465Z,101507.53
2023-02-02T00:45:33.591Z,101501.34
2023-02-02T00:45:57.961Z,101495.22
2023-02-02T00:46:22.890Z,101503.09
2023-02-02T00:46:46.861Z,101505.75
2023-02-02T00:47:08.757Z,101499.53
2023-02-02T00:47:33.386Z,101506.63
2023-02-02T00:47:55.053Z,101506.63
2023-02-02T00:48:19.059Z,101500.44
2023-02-02T00:48:40.961Z,101495.91
2023-02-02T00:49:03.158Z,101497.63
2023-02-02T00:49:26.710Z,101502.97
2023-02-02T00:49:49.752Z,101502.09
2023-02-02T00:50:15.280Z,101500.31
2023-02-02T00:50:37.671Z,101504.69
2023-02-02T00:50:59.360Z,101498.66
2023-02-02T00:51:23.362Z,101496.28
2023-02-02T00:51:45.964Z,101502.50
2023-02-02T00:52:09.090Z,101505.06
2023-02-02T00:52:31.287Z,101500.53
2023-02-02T00:52:53.884Z,101499.56
2023-02-02T00:53:15.517Z,101504.06
2023-02-02T00:53:37.170Z,101498.69
2023-02-02T00:53:59.112Z,101498.94
2023-02-02T00:54:20.821Z,101499.66
2023-02-02T00:54:43.376Z,101496.09
2023-02-02T00:55:06.983Z,101499.56
2023-02-02T00:55:30.180Z,101500.44
2023-02-02T00:55:53.055Z,101497.69
2023-02-02T00:56:16.664Z,101502.97
2023-02-02T00:56:38.358Z,101493.25
2023-02-02T00:57:01.354Z,101493.16
2023-02-02T00:57:22.957Z,101493.13
2023-02-02T00:57:45.695Z,101489.63
2023-02-02T00:58:07.360Z,101498.34
2023-02-02T00:58:28.913Z,101484.38
2023-02-02T00:58:50.541Z,101497.88
2023-02-02T00:59:13.157Z,101492.50
2023-02-02T00:59:34.799Z,101487.25
2023-02-02T00:59:56.368Z,101498.94
2023-02-02T01:00:20.840Z,101497.13
2023-02-02T01:00:43.478Z,101490.91
2023-02-02T01:01:05.248Z,101491.72
2023-02-02T01:01:26.995Z,101496.47
2023-02-02T01:01:48.664Z,101497.28
2023-02-02T01:02:11.538Z,101506.94
2023-02-02T01:02:33.454Z,101490.25
2023-02-02T01:02:57.920Z,101496.53
2023-02-02T01:03:19.516Z,101494.66
2023-02-02T01:03:41.161Z,101487.56
2023-02-02T01:04:03.861Z,101494.56
2023-02-02T01:04:25.611Z,101489.22
2023-02-02T01:04:47.385Z,101491.88
2023-02-02T01:05:11.608Z,101487.44
2023-02-02T01:05:35.370Z,101494.63
2023-02-02T01:05:56.971Z,101491.03
2023-02-02T01:06:18.924Z,101497.31
2023-02-02T01:06:42.081Z,101495.47
2023-02-02T01:07:03.990Z,101491.88
2023-02-02T01:07:26.568Z,101489.13
2023-02-02T01:07:48.301Z,101503.28
2023-02-02T01:08:10.012Z,101497.00
2023-02-02T01:08:31.672Z,101490.78
2023-02-02T01:08:54.516Z,101490.72
2023-02-02T01:09:16.087Z,101491.59
2023-02-02T01:09:37.720Z,101485.34
2023-02-02T01:09:59.347Z,101497.78
2023-02-02T01:10:21.945Z,101494.22
2023-02-02T01:10:43.589Z,101495.03
2023-02-02T01:11:05.694Z,101495.03
2023-02-02T01:11:27.483Z,101485.25
2023-02-02T01:11:49.206Z,101491.81
2023-02-02T01:12:13.156Z,101485.63
2023-02-02T01:12:34.903Z,101501.53
2023-02-02T01:12:56.523Z,101495.31
2023-02-02T01:13:18.181Z,101503.31
2023-02-02T01:13:40.719Z,101492.69
2023-02-02T01:14:02.571Z,101498.00
2023-02-02T01:14:24.141Z,101491.78
2023-02-02T01:14:45.860Z,101498.81
2023-02-02T01:15:09.984Z,101497.09
2023-02-02T01:15:31.556Z,101493.44
2023-02-02T01:15:55.537Z,101493.38
2023-02-02T01:16:17.225Z,101495.25
2023-02-02T01:16:39.845Z,101498.81
2023-02-02T01:17:01.729Z,101497.19
2023-02-02T01:17:23.412Z,101491.97
2023-02-02T01:17:45.024Z,101486.00
2023-02-02T01:18:07.877Z,101507.41
2023-02-02T01:18:30.835Z,101501.16
2023-02-02T01:18:52.931Z,101505.75
2023-02-02T01:19:15.651Z,101508.50
2023-02-02T01:19:37.379Z,101503.38
2023-02-02T01:20:00.228Z,101511.22
2023-02-02T01:20:22.922Z,101499.56
2023-02-02T01:20:44.616Z,101498.56
2023-02-02T01:21:08.861Z,101511.84
2023-02-02T01:21:30.495Z,101509.13
2023-02-02T01:21:53.380Z,101502.19
2023-02-02T01:22:15.260Z,101508.34
2023-02-02T01:22:38.506Z,101501.22
2023-02-02T01:23:00.114Z,101507.31
2023-02-02T01:23:21.726Z,101501.03
2023-02-02T01:23:44.560Z,101509.91
2023-02-02T01:24:06.899Z,101503.69
2023-02-02T01:24:28.613Z,101504.44
2023-02-02T01:24:50.865Z,101508.78
2023-02-02T01:25:14.182Z,101507.00
2023-02-02T01:25:38.437Z,101508.72
2023-02-02T01:26:02.305Z,101501.56
2023-02-02T01:26:23.919Z,101511.28
2023-02-02T01:26:46.627Z,101505.06
2023-02-02T01:27:08.248Z,101518.25
2023-02-02T01:27:31.207Z,101503.22
2023-02-02T01:28:35.192Z,101513.91
2023-02-02T01:28:56.817Z,101510.38
2023-02-02T01:29:18.517Z,101502.41
2023-02-02T01:29:42.271Z,101506.72
2023-02-02T01:30:05.663Z,101516.41
2023-02-02T01:30:27.495Z,101505.88
2023-02-02T01:30:50.419Z,101510.28
2023-02-02T01:31:14.554Z,101497.09
2023-02-02T01:31:37.355Z,101521.69
2023-02-02T01:31:59.141Z,101507.53
2023-02-02T01:32:21.183Z,101511.00
2023-02-02T01:32:42.782Z,101513.81
2023-02-02T01:33:04.537Z,101513.72
2023-02-02T01:33:27.437Z,101508.41
2023-02-02T01:33:50.307Z,101512.19
2023-02-02T01:34:11.957Z,101520.06
2023-02-02T01:34:34.872Z,101521.81
2023-02-02T01:34:56.534Z,101520.03
2023-02-02T01:35:18.246Z,101520.00
2023-02-02T01:35:45.587Z,101519.16
2023-02-02T01:36:11.321Z,101521.94
2023-02-02T01:37:19.299Z,101515.00
2023-02-02T01:37:42.817Z,101522.06
2023-02-02T01:38:05.175Z,101523.03
2023-02-02T01:38:27.247Z,101522.31
2023-02-02T01:38:52.870Z,101529.38
2023-02-02T01:39:16.505Z,101515.31
2023-02-02T01:39:38.177Z,101515.22
2023-02-02T01:39:59.834Z,101521.56
2023-02-02T01:40:21.412Z,101525.03
2023-02-02T01:40:47.975Z,101519.63
2023-02-02T01:41:12.638Z,101529.34
2023-02-02T01:41:34.411Z,101519.00
2023-02-02T01:41:56.319Z,101515.41
2023-02-02T01:42:22.598Z,101534.00
2023-02-02T01:42:48.661Z,101518.09
2023-02-02T01:43:22.281Z,101527.75
2023-02-02T01:43:53.213Z,101525.06
2023-02-02T01:44:53.077Z,101518.81
2023-02-02T01:45:21.577Z,101523.09
2023-02-02T01:45:43.322Z,101523.09
2023-02-02T01:46:10.190Z,101523.03
2023-02-02T01:46:34.690Z,101525.81
2023-02-02T01:46:56.364Z,101522.25
2023-02-02T01:47:19.606Z,101532.88
2023-02-02T01:47:44.821Z,101524.84
2023-02-02T01:48:07.553Z,101517.78
2023-02-02T01:48:34.685Z,101523.94
2023-02-02T01:49:01.435Z,101524.91
2023-02-02T01:49:23.328Z,101526.88
2023-02-02T01:49:46.466Z,101527.72
2023-02-02T01:50:10.540Z,101519.81
2023-02-02T01:50:34.708Z,101530.34
2023-02-02T01:51:00.387Z,101527.66
2023-02-02T01:51:27.341Z,101524.16
2023-02-02T01:51:54.523Z,101529.56
2023-02-02T01:52:19.552Z,101524.22
2023-02-02T01:52:43.601Z,101534.84
2023-02-02T01:53:07.275Z,101532.09
2023-02-02T01:53:30.824Z,101532.03
2023-02-02T01:53:56.204Z,101529.47
2023-02-02T01:54:21.936Z,101533.00
2023-02-02T01:54:46.406Z,101534.69
2023-02-02T01:55:12.705Z,101528.47
2023-02-02T01:55:37.351Z,101537.25
2023-02-02T01:55:59.879Z,101525.84
2023-02-02T01:56:26.841Z,101535.66
2023-02-02T01:56:55.822Z,101541.78
2023-02-02T01:57:23.743Z,101529.75
2023-02-02T01:57:50.523Z,101536.19
2023-02-02T01:58:17.968Z,101535.19
2023-02-02T01:58:42.178Z,101538.56
2023-02-02T01:59:06.609Z,101537.53
2023-02-02T01:59:30.200Z,101543.59
2023-02-02T01:59:54.229Z,101542.81
2023-02-02T02:00:16.996Z,101539.31
2023-02-02T02:00:42.332Z,101539.22
2023-02-02T02:01:04.480Z,101537.59
2023-02-02T02:01:26.975Z,101549.03
2023-02-02T02:01:49.335Z,101536.63
2023-02-02T02:02:14.631Z,101542.72
2023-02-02T02:02:37.282Z,101542.72
2023-02-02T02:03:02.389Z,101538.28
2023-02-02T02:03:26.700Z,101535.69
2023-02-02T02:03:50.109Z,101542.72
2023-02-02T02:04:12.013Z,101533.88
2023-02-02T02:04:33.729Z,101538.22
2023-02-02T02:04:56.109Z,101534.75
2023-02-02T02:05:26.333Z,101541.88
2023-02-02T02:05:53.606Z,101547.22
2023-02-02T02:06:18.498Z,101541.88
2023-02-02T02:06:40.497Z,101536.63
2023-02-02T02:07:04.924Z,101536.69
2023-02-02T02:07:27.664Z,101546.34
2023-02-02T02:07:53.112Z,101536.75
2023-02-02T02:08:18.784Z,101546.72
2023-02-02T02:08:47.212Z,101540.53
2023-02-02T02:09:09.876Z,101535.22
2023-02-02T02:09:31.576Z,101541.44
2023-02-02T02:09:53.861Z,101544.00
2023-02-02T02:10:17.157Z,101541.31
2023-02-02T02:10:39.776Z,101541.25
2023-02-02T02:11:01.651Z,101538.56
2023-02-02T02:11:24.616Z,101544.69
2023-02-02T02:11:46.340Z,101521.94
2023-02-02T02:12:14.461Z,101542.81
2023-02-02T02:12:36.796Z,101544.53
2023-02-02T02:13:00.608Z,101545.41
2023-02-02T02:13:45.626Z,101545.31
2023-02-02T02:14:29.110Z,101542.66
2023-02-02T02:15:10.661Z,101537.25
2023-02-02T02:15:59.357Z,101546.88
2023-02-02T02:16:28.667Z,101540.72
2023-02-02T02:17:05.178Z,101532.88
2023-02-02T02:17:47.168Z,101532.03
2023-02-02T02:18:21.571Z,101535.56
2023-02-02T02:18:53.558Z,101542.56
2023-02-02T02:19:59.187Z,101520.50
2023-02-02T02:21:21.417Z,101539.91
2023-02-02T02:22:15.556Z,101539.78
2023-02-02T02:23:06.599Z,101537.13
2023-02-02T02:24:52.952Z,101531.81
2023-02-02T02:26:06.676Z,101533.78
2023-02-02T02:26:58.490Z,101534.56
2023-02-02T02:27:38.680Z,101538.94
2023-02-02T02:28:49.714Z,101532.75
2023-02-02T02:29:35.891Z,101539.91
2023-02-02T02:30:17.866Z,101533.78
2023-02-02T02:31:03.286Z,101539.03
2023-02-02T02:31:59.324Z,101532.03
2023-02-02T02:32:42.030Z,101529.34
2023-02-02T02:33:06.126Z,101535.56
2023-02-02T02:33:36.544Z,101534.69
2023-02-02T02:34:03.975Z,101531.94
2023-02-02T02:34:37.018Z,101523.97
2023-02-02T02:35:05.186Z,101532.72
2023-02-02T02:35:33.129Z,101536.28
2023-02-02T02:36:03.811Z,101528.41
2023-02-02T02:36:37.437Z,101518.66
2023-02-02T02:37:07.034Z,101530.09
2023-02-02T02:37:36.855Z,101529.34
2023-02-02T02:38:05.704Z,101524.94
2023-02-02T02:38:36.014Z,101530.13
2023-02-02T02:39:06.720Z,101528.34
2023-02-02T02:39:34.349Z,101516.94
2023-02-02T02:40:00.916Z,101530.00
2023-02-02T02:40:28.282Z,101530.88
2023-02-02T02:40:55.042Z,101525.56
2023-02-02T02:41:21.093Z,101523.84
2023-02-02T02:41:50.957Z,101524.72
2023-02-02T02:42:15.985Z,101527.41
2023-02-02T02:42:42.704Z,101524.78
2023-02-02T02:43:10.163Z,101526.50
2023-02-02T02:43:37.472Z,101521.19
2023-02-02T02:44:03.977Z,101524.63
2023-02-02T02:44:28.192Z,101525.47
2023-02-02T02:44:50.983Z,101514.94
2023-02-02T02:45:14.820Z,101518.53
2023-02-02T02:45:38.324Z,101512.44
2023-02-02T02:46:00.771Z,101511.66
2023-02-02T02:46:23.558Z,101523.00
2023-02-02T02:46:46.988Z,101523.94
2023-02-02T02:47:10.754Z,101519.47
2023-02-02T02:47:33.079Z,101518.63
2023-02-02T02:47:55.474Z,101508.03
2023-02-02T02:48:18.758Z,101523.03
2023-02-02T02:48:44.215Z,101515.13
2023-02-02T02:49:08.813Z,101525.66
2023-02-02T02:49:31.453Z,101524.84
2023-02-02T02:49:53.136Z,101520.53
2023-02-02T02:50:14.732Z,101523.09
2023-02-02T02:50:36.716Z,101524.84
2023-02-02T02:51:07.475Z,101521.31
2023-02-02T02:51:45.473Z,101522.28
2023-02-02T02:52:10.901Z,101522.25
2023-02-02T02:52:36.242Z,101523.97
2023-02-02T02:53:02.070Z,101524.97
2023-02-02T02:53:24.929Z,101520.44
2023-02-02T02:53:46.687Z,101510.88
2023-02-02T02:54:11.244Z,101519.63
2023-02-02T02:54:36.449Z,101527.63
2023-02-02T02:55:01.848Z,101527.78
2023-02-02T02:55:29.810Z,101523.34
2023-02-02T02:55:57.968Z,101518.94
2023-02-02T02:56:31.973Z,101520.78
2023-02-02T02:57:26.647Z,101514.59
2023-02-02T02:58:06.298Z,101518.09
2023-02-02T02:58:36.073Z,101520.59
2023-02-02T02:59:07.624Z,101524.22
2023-02-02T02:59:41.484Z,101527.88
2023-02-02T03:00:15.440Z,101521.66
2023-02-02T03:00:46.359Z,101527.72
2023-02-02T03:01:14.821Z,101533.88
2023-02-02T03:01:43.510Z,101526.81
2023-02-02T03:02:21.849Z,101520.00
2023-02-02T03:02:54.120Z,101522.66
2023-02-02T03:03:26.517Z,101528.75
2023-02-02T03:04:09.224Z,101527.84
2023-02-02T03:04:39.845Z,101527.84
2023-02-02T03:05:11.144Z,101527.69
2023-02-02T03:05:41.550Z,101530.44
2023-02-02T03:06:10.772Z,101543.59
2023-02-02T03:06:41.185Z,101520.59
2023-02-02T03:07:09.208Z,101532.88
2023-02-02T03:07:39.677Z,101534.69
2023-02-02T03:08:08.685Z,101525.91
2023-02-02T03:08:34.297Z,101536.66
2023-02-02T03:09:02.287Z,101526.78
2023-02-02T03:09:30.356Z,101534.75
2023-02-02T03:09:54.936Z,101534.88
2023-02-02T03:10:19.316Z,101532.22
2023-02-02T03:10:43.818Z,101534.78
2023-02-02T03:11:08.859Z,101531.16
2023-02-02T03:11:30.693Z,101539.13
2023-02-02T03:11:52.447Z,101527.59
2023-02-02T03:12:16.767Z,101536.47
2023-02-02T03:12:44.627Z,101531.22
2023-02-02T03:13:10.075Z,101532.81
2023-02-02T03:13:32.113Z,101536.28
2023-02-02T03:13:54.952Z,101532.75
2023-02-02T03:14:16.770Z,101535.47
2023-02-02T03:14:39.364Z,101531.91
2023-02-02T03:15:07.339Z,101529.25
2023-02-02T03:15:29.014Z,101532.75
2023-02-02T03:15:50.761Z,101533.69
2023-02-02T03:16:12.485Z,101538.13
2023-02-02T03:16:35.153Z,101529.28
2023-02-02T03:16:56.843Z,101538.13
2023-02-02T03:17:19.811Z,101534.59
2023-02-02T03:17:41.776Z,101537.25
2023-02-02T03:18:03.784Z,101534.69
2023-02-02T03:18:28.760Z,101530.22
2023-02-02T03:18:50.461Z,101530.16
2023-02-02T03:19:12.114Z,101539.00
2023-02-02T03:19:33.981Z,101532.78
2023-02-02T03:19:56.607Z,101540.75
2023-02-02T03:20:18.860Z,101530.13
2023-02-02T03:20:40.658Z,101530.25
2023-02-02T03:21:02.293Z,101534.75
2023-02-02T03:21:24.898Z,101535.56
2023-02-02T03:21:46.485Z,101538.41
2023-02-02T03:22:08.401Z,101532.19
2023-02-02T03:22:30.083Z,101533.88
2023-02-02T03:22:51.696Z,101529.44
2023-02-02T03:23:15.180Z,101526.88
2023-02-02T03:23:36.777Z,101538.25
2023-02-02T03:23:58.485Z,101532.91
2023-02-02T03:24:20.112Z,101529.28
2023-02-02T03:24:42.735Z,101529.38
2023-02-02T03:25:05.192Z,101529.38
2023-02-02T03:25:27.054Z,101534.69
2023-02-02T03:25:48.732Z,101534.69
2023-02-02T03:26:11.418Z,101538.13
2023-02-02T03:26:33.130Z,101533.66
2023-02-02T03:26:55.041Z,101528.47
2023-02-02T03:27:17.055Z,101538.22
2023-02-02T03:27:39.897Z,101537.31
2023-02-02T03:28:02.745Z,101537.25
2023-02-02T03:28:25.384Z,101535.66
2023-02-02T03:28:47.176Z,101535.56
2023-02-02T03:29:08.942Z,101531.25
2023-02-02T03:29:31.716Z,101533.03
2023-02-02T03:29:53.830Z,101539.22
2023-02-02T03:30:15.648Z,101537.44
2023-02-02T03:30:38.400Z,101532.09
2023-02-02T03:31:02.949Z,101531.22
2023-02-02T03:31:27.201Z,101536.44
2023-02-02T03:31:49.109Z,101533.78
2023-02-02T03:32:10.840Z,101540.84
2023-02-02T03:32:34.217Z,101528.41
2023-02-02T03:32:56.922Z,101534.69
2023-02-02T03:33:18.748Z,101539.88
2023-02-02T03:33:40.452Z,101539.88
2023-02-02T03:34:02.178Z,101532.78
2023-02-02T03:34:23.862Z,101535.41
2023-02-02T03:34:46.490Z,101532.09
2023-02-02T03:35:09.246Z,101527.84
2023-02-02T03:35:31.056Z,101535.66
2023-02-02T03:35:54.171Z,101531.22
2023-02-02T03:36:16.831Z,101540.06
2023-02-02T03:36:38.829Z,101542.72
2023-02-02T03:37:02.037Z,101535.56
2023-02-02T03:37:23.828Z,101532.91
2023-02-02T03:37:47.286Z,101539.97
2023-02-02T03:38:08.990Z,101537.31
2023-02-02T03:38:30.807Z,101543.44
2023-02-02T03:38:52.395Z,101546.16
2023-02-02T03:39:15.245Z,101540.88
2023-02-02T03:39:36.857Z,101541.75
2023-02-02T03:39:58.445Z,101539.97
2023-02-02T03:40:20.119Z,101545.22
2023-02-02T03:40:42.838Z,101539.03
2023-02-02T03:41:06.422Z,101536.38
2023-02-02T03:41:28.042Z,101539.00
2023-02-02T03:41:49.647Z,101545.13
2023-02-02T03:42:11.487Z,101548.88
2023-02-02T03:42:33.149Z,101544.56
2023-02-02T03:42:56.212Z,101544.69
2023-02-02T03:43:20.614Z,101552.56
2023-02-02T03:43:42.274Z,101548.09
2023-02-02T03:44:04.069Z,101549.88
2023-02-02T03:44:25.704Z,101547.34
2023-02-02T03:44:48.305Z,101533.16
2023-02-02T03:45:10.896Z,101542.91
2023-02-02T03:45:35.222Z,101549.22
2023-02-02T03:45:57.940Z,101550.00
2023-02-02T03:46:20.647Z,101538.47
2023-02-02T03:46:42.329Z,101543.91
2023-02-02T03:47:04.084Z,101542.97
2023-02-02T03:47:28.739Z,101549.13
2023-02-02T03:47:52.732Z,101538.56
2023-02-02T03:48:14.374Z,101541.22
2023-02-02T03:48:37.521Z,101542.03
2023-02-02T03:48:59.183Z,101546.44
2023-02-02T03:49:22.092Z,101547.34
2023-02-02T03:49:43.755Z,101549.91
2023-02-02T03:50:06.440Z,101541.13
2023-02-02T03:50:28.099Z,101543.78
2023-02-02T03:50:50.738Z,101556.06
2023-02-02T03:51:13.989Z,101547.25
2023-02-02T03:51:35.668Z,101550.72
2023-02-02T03:51:57.365Z,101547.22
2023-02-02T03:52:19.995Z,101552.50
2023-02-02T03:52:41.606Z,101549.81
2023-02-02T03:53:03.337Z,101544.53
2023-02-02T03:53:25.088Z,101551.75
2023-02-02T03:53:48.140Z,101546.53
2023-02-02T03:54:09.924Z,101542.09
2023-02-02T03:54:31.561Z,101550.31
2023-02-02T03:54:53.249Z,101547.69
2023-02-02T03:55:15.027Z,101551.22
2023-02-02T03:55:38.977Z,101544.97
2023-02-02T03:56:01.645Z,101547.59
2023-02-02T03:56:23.481Z,101549.47
2023-02-02T03:56:45.126Z,101551.16
2023-02-02T03:57:07.740Z,101552.00
2023-02-02T03:57:30.395Z,101553.81
2023-02-02T03:57:52.430Z,101549.38
2023-02-02T03:58:14.224Z,101551.13
2023-02-02T03:58:36.873Z,101545.75
2023-02-02T03:58:58.619Z,101550.16
2023-02-02T03:59:20.253Z,101549.22
2023-02-02T03:59:42.187Z,101550.03
2023-02-02T04:00:06.368Z,101541.25
2023-02-02T04:00:33.933Z,101547.44
2023-02-02T04:00:59.713Z,101546.53
2023-02-02T04:01:28.895Z,101552.66
2023-02-02T04:01:51.171Z,101547.44
2023-02-02T04:02:12.901Z,101547.41
2023-02-02T04:02:34.620Z,101555.34
2023-02-02T04:03:01.789Z,101542.06
2023-02-02T04:03:23.772Z,101550.03
2023-02-02T04:03:46.237Z,101558.06
2023-02-02T04:04:08.435Z,101551.84
2023-02-02T04:04:30.089Z,101553.59
2023-02-02T04:04:52.721Z,101556.19
2023-02-02T04:05:15.937Z,101551.78
2023-02-02T04:05:37.557Z,101550.88
2023-02-02T04:05:59.617Z,101551.81
2023-02-02T04:06:22.515Z,101550.00
2023-02-02T04:06:44.312Z,101556.28
2023-02-02T04:07:06.318Z,101550.09
2023-02-02T04:07:28.155Z,101556.25
2023-02-02T04:07:50.733Z,101545.56
2023-02-02T04:08:12.401Z,101550.88
2023-02-02T04:08:34.210Z,101549.09
2023-02-02T04:08:55.824Z,101548.16
2023-02-02T04:09:18.667Z,101546.47
2023-02-02T04:09:40.397Z,101551.66
2023-02-02T04:10:02.188Z,101553.38
2023-02-02T04:10:23.923Z,101552.47
2023-02-02T04:10:45.567Z,101550.69
2023-02-02T04:11:10.719Z,101552.47
2023-02-02T04:11:32.386Z,101549.75
2023-02-02T04:11:54.347Z,101550.59
2023-02-02T04:12:16.001Z,101547.97
2023-02-02T04:12:38.559Z,101552.38
2023-02-02T04:13:00.150Z,101549.75
2023-02-02T04:13:21.816Z,101552.41
2023-02-02T04:13:43.687Z,101550.63
2023-02-02T04:14:07.057Z,101555.91
2023-02-02T04:14:28.670Z,101554.97
2023-02-02T04:14:51.034Z,101554.06
2023-02-02T04:15:12.714Z,101539.03
2023-02-02T04:15:34.352Z,101561.16
2023-02-02T04:16:00.766Z,101560.34
2023-02-02T04:16:22.451Z,101557.97
2023-02-02T04:16:44.103Z,101545.66
2023-02-02T04:17:05.823Z,101552.66
2023-02-02T04:17:28.388Z,101552.66
2023-02-02T04:17:49.980Z,101560.53
2023-02-02T04:18:12.937Z,101562.31
2023-02-02T04:18:34.622Z,101556.09
2023-02-02T04:18:57.227Z,101555.16
2023-02-02T04:19:18.774Z,101557.78
2023-02-02T04:19:40.412Z,101559.56
2023-02-02T04:20:02.191Z,101552.56
2023-02-02T04:20:24.716Z,101560.59
2023-02-02T04:20:46.314Z,101549.97
2023-02-02T04:21:08.648Z,101559.72
2023-02-02T04:21:30.413Z,101558.78
2023-02-02T04:21:54.425Z,101559.63
2023-02-02T04:22:16.057Z,101555.19
2023-02-02T04:22:37.769Z,101562.19
2023-02-02T04:22:59.349Z,101563.03
2023-02-02T04:23:21.878Z,101564.78
2023-02-02T04:23:43.484Z,101566.63
2023-02-02T04:24:06.004Z,101565.75
2023-02-02T04:24:27.568Z,101564.78
2023-02-02T04:24:50.168Z,101560.34
2023-02-02T04:25:11.873Z,101563.78
2023-02-02T04:25:33.529Z,101557.59
2023-02-02T04:25:55.848Z,101564.69
2023-02-02T04:26:18.530Z,101561.16
2023-02-02T04:26:41.426Z,101563.81
2023-02-02T04:27:03.118Z,101554.97
2023-02-02T04:27:25.977Z,101566.44
2023-02-02T04:27:47.604Z,101564.63
2023-02-02T04:28:09.261Z,101562.88
2023-02-02T04:28:31.114Z,101569.03
2023-02-02T04:28:53.816Z,101559.34
2023-02-02T04:29:15.566Z,101552.19
2023-02-02T04:29:37.272Z,101562.81
2023-02-02T04:29:58.981Z,101565.41
2023-02-02T04:30:20.946Z,101562.75
2023-02-02T04:30:43.581Z,101564.50
2023-02-02T04:31:05.357Z,101568.06
2023-02-02T04:31:27.553Z,101565.41
2023-02-02T04:31:49.212Z,101566.34
2023-02-02T04:32:11.877Z,101562.94
2023-02-02T04:32:33.565Z,101557.63
2023-02-02T04:32:55.333Z,101571.75
2023-02-02T04:33:18.568Z,101550.50
2023-02-02T04:33:41.918Z,101562.03
2023-02-02T04:34:05.338Z,101564.63
2023-02-02T04:34:28.261Z,101560.16
2023-02-02T04:34:50.644Z,101562.81
2023-02-02T04:35:13.514Z,101563.69
2023-02-02T04:35:35.646Z,101561.06
2023-02-02T04:35:57.329Z,101562.91
2023-02-02T04:36:20.264Z,101563.88
2023-02-02T04:36:41.940Z,101555.94
2023-02-02T04:37:03.909Z,101566.63
2023-02-02T04:37:25.577Z,101564.09
2023-02-02T04:37:47.233Z,101570.59
2023-02-02T04:38:10.268Z,101553.72
2023-02-02T04:38:31.948Z,101559.09
2023-02-02T04:38:56.003Z,101560.78
2023-02-02T04:39:17.651Z,101566.03
2023-02-02T04:39:40.439Z,101563.31
2023-02-02T04:40:02.131Z,101555.34
2023-02-02T04:40:24.145Z,101562.31
2023-02-02T04:40:47.761Z,101569.38
2023-02-02T04:41:14.460Z,101567.59